createdAt,value
2022-08-25T00:01:30.439Z,14.60
2022-08-25T00:04:00.777Z,14.73
2022-08-25T00:06:28.927Z,14.50
2022-08-25T00:08:59.520Z,14.57
2022-08-25T00:11:29.902Z,14.60
2022-08-25T00:14:00.465Z,12.93
2022-08-25T00:16:28.044Z,15.27
2022-08-25T00:18:58.162Z,15.40
2022-08-25T00:21:26.384Z,14.07
2022-08-25T00:23:53.916Z,14.97
2022-08-25T00:26:22.488Z,14.63
2022-08-25T00:28:49.217Z,13.80
2022-08-25T00:31:18.830Z,14.77
2022-08-25T00:33:46.830Z,16.13
2022-08-25T00:36:14.416Z,14.40
2022-08-25T00:38:43.472Z,15.23
2022-08-25T00:41:12.658Z,14.67
2022-08-25T00:43:42.457Z,15.40
2022-08-25T00:46:10.614Z,15.10
2022-08-25T00:48:42.246Z,17.30
2022-08-25T00:51:12.604Z,15.43
2022-08-25T00:53:39.986Z,15.37
2022-08-25T00:56:06.847Z,16.03
2022-08-25T00:58:35.536Z,15.57
2022-08-25T01:01:02.329Z,15.67
2022-08-25T01:03:35.652Z,15.23
2022-08-25T01:06:04.224Z,14.87
2022-08-25T01:08:32.512Z,14.63
2022-08-25T01:11:03.440Z,14.70
2022-08-25T01:13:35.196Z,14.73
2022-08-25T01:16:02.614Z,14.83
2022-08-25T01:18:41.732Z,16.47
2022-08-25T01:21:08.440Z,15.20
2022-08-25T01:23:35.179Z,16.30
2022-08-25T01:26:19.621Z,15.20
2022-08-25T01:29:11.105Z,15.63
2022-08-25T01:31:38.448Z,15.33
2022-08-25T01:34:07.363Z,15.10
2022-08-25T01:36:35.577Z,14.47
2022-08-25T01:39:04.017Z,16.73
2022-08-25T01:41:31.292Z,15.50
2022-08-25T01:43:58.097Z,15.50
2022-08-25T01:46:25.122Z,15.03
2022-08-25T01:48:51.923Z,15.63
2022-08-25T01:51:23.563Z,15.57
2022-08-25T01:53:50.899Z,15.93
2022-08-25T01:56:19.287Z,14.60
2022-08-25T01:58:49.000Z,15.30
2022-08-25T02:01:21.598Z,15.57
2022-08-25T02:03:50.925Z,14.97
2022-08-25T02:06:32.045Z,15.93
2022-08-25T02:09:05.317Z,15.67
2022-08-25T02:11:33.367Z,14.40
2022-08-25T02:14:00.971Z,16.50
2022-08-25T02:16:31.535Z,15.43
2022-08-25T02:18:59.255Z,14.33
2022-08-25T02:21:26.753Z,16.47
2022-08-25T02:23:53.822Z,15.77
2022-08-25T02:26:20.709Z,16.90
2022-08-25T02:28:49.144Z,16.47
2022-08-25T02:31:17.551Z,16.17
2022-08-25T02:33:44.503Z,14.93
2022-08-25T02:36:11.657Z,15.33
2022-08-25T02:38:39.750Z,16.03
2022-08-25T02:41:13.270Z,14.10
2022-08-25T02:43:41.737Z,15.53
2022-08-25T02:46:09.713Z,15.80
2022-08-25T02:48:37.146Z,15.37
2022-08-25T02:51:06.644Z,14.90
2022-08-25T02:53:34.915Z,16.97
2022-08-25T02:56:02.026Z,15.83
2022-08-25T02:58:29.085Z,16.57
2022-08-25T03:00:56.739Z,15.60
2022-08-25T03:03:23.923Z,15.13
2022-08-25T03:05:51.019Z,14.73
2022-08-25T03:08:17.930Z,15.13
2022-08-25T03:10:45.055Z,16.83
2022-08-25T03:13:14.265Z,15.67
2022-08-25T03:15:42.462Z,16.87
2022-08-25T03:18:09.806Z,16.93
2022-08-25T03:20:36.589Z,15.03
2022-08-25T03:23:04.369Z,16.33
2022-08-25T03:25:49.805Z,16.43
2022-08-25T03:28:17.177Z,18.07
2022-08-25T03:30:44.456Z,16.70
2022-08-25T03:33:12.000Z,15.93
2022-08-25T03:35:40.694Z,15.70
2022-08-25T03:38:07.564Z,16.93
2022-08-25T03:40:34.571Z,16.03
2022-08-25T03:43:01.407Z,17.40
2022-08-25T03:45:28.152Z,15.43
2022-08-25T03:47:55.076Z,18.80
2022-08-25T03:50:23.115Z,18.23
2022-08-25T03:52:57.028Z,16.90
2022-08-25T03:55:25.162Z,17.10
2022-08-25T03:57:54.196Z,17.73
2022-08-25T04:00:23.043Z,16.53
2022-08-25T04:02:49.910Z,16.60
2022-08-25T04:05:16.960Z,17.23
2022-08-25T04:07:43.696Z,18.13
2022-08-25T04:10:11.370Z,17.10
2022-08-25T04:12:39.144Z,16.80
2022-08-25T04:15:07.985Z,17.90
2022-08-25T04:17:37.757Z,17.00
2022-08-25T04:20:06.003Z,17.37
2022-08-25T04:22:32.801Z,17.20
2022-08-25T04:25:05.815Z,18.77
2022-08-25T04:27:32.749Z,16.40
2022-08-25T04:29:59.705Z,18.57
2022-08-25T04:32:26.519Z,17.63
2022-08-25T04:34:53.367Z,17.07
2022-08-25T04:37:20.097Z,17.13
2022-08-25T04:39:46.906Z,18.37
2022-08-25T04:42:13.639Z,18.63
2022-08-25T04:44:40.405Z,17.17
2022-08-25T04:47:07.368Z,16.83
2022-08-25T04:49:34.101Z,17.00
2022-08-25T04:52:00.837Z,16.50
2022-08-25T04:54:28.207Z,17.87
2022-08-25T04:56:58.680Z,17.77
2022-08-25T04:59:29.561Z,16.30
2022-08-25T05:01:58.739Z,15.60
2022-08-25T05:04:28.105Z,17.87
2022-08-25T05:06:56.381Z,16.43
2022-08-25T05:09:23.433Z,15.60
2022-08-25T05:11:52.129Z,15.40
2022-08-25T05:14:26.573Z,15.57
2022-08-25T05:16:55.280Z,17.07
2022-08-25T05:19:23.917Z,16.27
2022-08-25T05:21:51.154Z,16.80
2022-08-25T05:24:18.330Z,16.00
2022-08-25T05:26:45.198Z,16.60
2022-08-25T05:29:14.350Z,16.50
2022-08-25T05:31:47.095Z,16.40
2022-08-25T05:34:18.709Z,18.50
2022-08-25T05:36:45.634Z,17.47
2022-08-25T05:39:12.886Z,17.40
2022-08-25T05:41:39.962Z,16.90
2022-08-25T05:44:06.868Z,18.80
2022-08-25T05:46:33.751Z,17.30
2022-08-25T05:49:01.053Z,16.13
2022-08-25T05:51:27.806Z,16.43
2022-08-25T05:53:54.672Z,16.97
2022-08-25T05:56:21.575Z,16.00
2022-08-25T05:58:49.143Z,20.10
2022-08-25T06:01:40.552Z,17.17
2022-08-25T06:04:10.594Z,17.40
2022-08-25T06:06:39.152Z,16.53
2022-08-25T06:09:08.576Z,16.90
2022-08-25T06:11:36.995Z,15.37
2022-08-25T06:14:04.761Z,19.17
2022-08-25T06:16:31.656Z,16.27
2022-08-25T06:18:58.587Z,16.60
2022-08-25T06:21:25.444Z,16.67
2022-08-25T06:23:52.771Z,17.20
2022-08-25T06:26:21.035Z,16.83
2022-08-25T06:28:51.847Z,17.97
2022-08-25T06:31:19.945Z,17.70
2022-08-25T06:33:47.014Z,16.13
2022-08-25T06:36:15.211Z,17.10
2022-08-25T06:38:41.956Z,15.87
2022-08-25T06:41:12.692Z,15.93
2022-08-25T06:43:47.310Z,17.67
2022-08-25T06:46:21.250Z,16.00
2022-08-25T06:48:49.076Z,16.20
2022-08-25T06:51:18.120Z,17.43
2022-08-25T06:53:46.386Z,17.70
2022-08-25T06:56:13.216Z,18.17
2022-08-25T17:40:42.003Z,5.77
2022-08-25T17:43:09.988Z,5.90
2022-08-25T17:45:37.458Z,5.37
2022-08-25T17:48:07.156Z,5.93
2022-08-25T17:50:35.987Z,5.67
2022-08-25T17:53:03.685Z,6.20
2022-08-25T17:55:32.068Z,6.00
2022-08-25T17:57:59.323Z,6.27
2022-08-25T18:00:26.536Z,5.33
2022-08-25T18:02:53.783Z,5.23
2022-08-25T18:05:21.089Z,5.60
2022-08-25T18:07:48.229Z,6.03
2022-08-25T18:10:16.667Z,6.20
2022-08-25T18:12:44.228Z,6.20
2022-08-25T18:15:12.574Z,6.80
2022-08-25T18:17:41.698Z,5.53
2022-08-25T18:20:09.832Z,6.00
2022-08-25T18:22:38.568Z,5.70
2022-08-25T18:25:06.958Z,5.97
2022-08-25T18:27:34.912Z,6.40
2022-08-25T18:30:03.397Z,6.30
2022-08-25T18:32:30.604Z,6.93
2022-08-25T18:34:58.099Z,6.97
2022-08-25T18:37:44.030Z,6.80
2022-08-25T18:40:24.216Z,6.27
2022-08-25T18:42:57.677Z,6.60
2022-08-25T18:45:27.984Z,6.87
2022-08-25T18:47:57.927Z,6.60
2022-08-25T18:50:29.786Z,6.50
2022-08-25T18:52:57.990Z,6.40
2022-08-25T18:55:25.946Z,7.13
2022-08-25T18:57:54.014Z,6.97
2022-08-25T19:00:23.911Z,7.30
2022-08-25T19:02:52.814Z,6.43
2022-08-25T19:05:24.126Z,6.50
2022-08-25T19:07:52.082Z,6.90
2022-08-25T19:10:20.954Z,7.23
2022-08-25T19:12:51.036Z,6.70
2022-08-25T19:15:18.296Z,7.03
2022-08-25T19:17:53.159Z,7.20
2022-08-25T19:20:22.093Z,6.60
2022-08-25T19:22:49.309Z,6.30
2022-08-25T19:25:16.932Z,6.67
2022-08-25T19:27:45.264Z,7.40
2022-08-25T19:30:13.576Z,7.40
2022-08-25T19:32:42.544Z,6.97
2022-08-25T19:35:19.757Z,6.93
2022-08-25T19:37:46.986Z,7.47
2022-08-25T19:40:15.270Z,7.00
2022-08-25T19:42:45.015Z,7.47
2022-08-25T19:45:12.212Z,6.83
2022-08-25T19:47:39.968Z,7.07
2022-08-25T19:50:07.763Z,7.10
2022-08-25T19:52:34.583Z,7.87
2022-08-25T19:55:04.313Z,6.20
2022-08-25T19:57:42.693Z,6.53
2022-08-25T20:00:17.816Z,7.50
2022-08-25T20:02:45.731Z,6.70
2022-08-25T20:05:14.467Z,7.33
2022-08-25T20:07:41.744Z,7.07
2022-08-25T20:10:14.322Z,7.90
2022-08-25T20:12:41.955Z,7.83
2022-08-25T20:15:09.976Z,7.17
2022-08-25T20:17:36.774Z,7.73
2022-08-25T20:20:11.290Z,7.53
2022-08-25T20:22:38.634Z,7.23
2022-08-25T20:25:13.180Z,7.10
2022-08-25T20:27:58.372Z,8.00
2022-08-25T20:30:29.865Z,7.43
2022-08-25T20:32:57.263Z,7.53
2022-08-25T20:35:27.023Z,7.90
2022-08-25T20:37:54.794Z,7.97
2022-08-25T20:40:25.716Z,7.87
2022-08-25T20:42:53.716Z,7.70
2022-08-25T20:45:21.880Z,7.60
2022-08-25T20:47:49.673Z,7.20
2022-08-25T20:50:17.012Z,6.77
2022-08-25T20:52:44.502Z,7.27
2022-08-25T20:55:12.391Z,7.27
2022-08-25T20:57:40.376Z,7.40
2022-08-25T21:00:09.845Z,8.20
2022-08-25T21:02:36.933Z,7.40
2022-08-25T21:05:04.721Z,6.70
2022-08-25T21:07:31.520Z,7.93
2022-08-25T21:10:05.236Z,7.73
2022-08-25T21:12:32.220Z,6.97
2022-08-25T21:14:58.936Z,6.90
2022-08-25T21:17:26.136Z,7.17
2022-08-25T21:19:52.858Z,7.87
2022-08-25T21:22:19.772Z,8.07
2022-08-25T21:24:47.428Z,6.97
2022-08-25T21:27:14.231Z,7.20
2022-08-25T21:29:44.558Z,7.43
2022-08-25T21:32:19.012Z,7.03
2022-08-25T21:34:45.925Z,7.50
2022-08-25T21:37:14.172Z,7.20
2022-08-25T21:39:41.127Z,7.43
2022-08-25T21:42:08.101Z,7.40
2022-08-25T21:44:36.136Z,7.07
2022-08-25T21:47:03.223Z,8.43
2022-08-25T21:49:30.590Z,7.87
2022-08-25T21:52:04.775Z,7.50
2022-08-25T21:54:32.212Z,7.70
2022-08-25T21:57:04.428Z,8.17
2022-08-25T21:59:37.433Z,8.23
2022-08-25T22:02:07.956Z,7.13
2022-08-25T22:04:36.604Z,7.33
2022-08-25T22:07:03.431Z,7.03
2022-08-25T22:09:30.748Z,7.83
2022-08-25T22:11:58.728Z,8.03
2022-08-25T22:14:26.523Z,7.93
2022-08-25T22:16:54.428Z,8.17
2022-08-25T22:19:22.782Z,7.43
2022-08-25T22:21:50.977Z,7.70
2022-08-25T22:24:18.805Z,8.33
2022-08-25T22:26:47.672Z,7.97
2022-08-25T22:29:23.235Z,7.03
2022-08-25T22:31:52.818Z,7.60
2022-08-25T22:34:31.705Z,8.20
2022-08-25T22:36:59.584Z,7.57
2022-08-25T22:39:26.852Z,7.63
2022-08-25T22:41:54.018Z,7.37
2022-08-25T22:44:23.118Z,7.50
2022-08-25T22:46:50.251Z,7.83
2022-08-25T22:49:17.669Z,8.37
2022-08-25T22:51:47.128Z,7.50
2022-08-25T22:54:15.125Z,7.50
2022-08-25T22:56:42.458Z,8.10
2022-08-25T22:59:11.754Z,8.30
2022-08-25T23:01:39.632Z,8.47
2022-08-25T23:04:07.370Z,8.20
2022-08-25T23:06:34.584Z,8.73
2022-08-25T23:09:02.098Z,8.57
2022-08-25T23:11:29.613Z,8.13
2022-08-25T23:13:57.986Z,8.50
2022-08-25T23:16:25.235Z,8.37
2022-08-25T23:18:53.378Z,7.87
2022-08-25T23:21:41.271Z,7.90
2022-08-25T23:24:13.605Z,8.53
2022-08-25T23:26:42.440Z,8.30
2022-08-25T23:29:18.335Z,8.33
2022-08-25T23:31:46.576Z,8.87
2022-08-25T23:34:13.868Z,8.00
2022-08-25T23:36:41.228Z,8.03
2022-08-25T23:39:09.716Z,8.33
2022-08-25T23:41:37.052Z,8.17
2022-08-25T23:44:11.624Z,7.83
2022-08-25T23:46:44.466Z,8.27
2022-08-25T23:49:11.796Z,8.30
2022-08-25T23:51:39.050Z,9.10
2022-08-25T23:54:09.460Z,8.80
2022-08-25T23:56:42.313Z,8.93
2022-08-25T23:59:11.766Z,8.17
